createdAt,value
2019-04-11T00:00:31.295Z,10.60
2019-04-11T00:03:01.387Z,10.60
2019-04-11T00:05:31.120Z,10.50
2019-04-11T00:08:00.163Z,10.60
2019-04-11T00:10:29.787Z,10.50
2019-04-11T00:13:01.100Z,10.50
2019-04-11T00:15:31.023Z,10.50
2019-04-11T00:18:01.133Z,10.50
2019-04-11T00:20:31.893Z,10.40
2019-04-11T00:23:01.924Z,10.30
2019-04-11T00:25:31.733Z,10.40
2019-04-11T00:28:01.962Z,10.30
2019-04-11T00:30:34.384Z,10.30
2019-04-11T00:33:05.693Z,10.30
2019-04-11T00:35:35.622Z,10.30
2019-04-11T00:38:07.723Z,10.30
2019-04-11T00:40:37.720Z,10.30
2019-04-11T00:43:07.495Z,10.30
2019-04-11T00:45:38.051Z,10.20
2019-04-11T00:48:09.015Z,10.30
2019-04-11T00:50:39.177Z,10.30
2019-04-11T00:53:09.760Z,10.20
2019-04-11T00:55:39.881Z,10.00
2019-04-11T00:58:11.988Z,10.00
2019-04-11T01:00:42.969Z,9.90
2019-04-11T01:03:13.731Z,10.00
2019-04-11T01:05:43.656Z,10.10
2019-04-11T01:08:13.681Z,9.90
2019-04-11T01:10:43.664Z,9.80
2019-04-11T01:13:14.334Z,9.90
2019-04-11T01:15:52.388Z,9.90
2019-04-11T01:18:22.287Z,9.80
2019-04-11T01:20:52.095Z,9.80
2019-04-11T01:23:22.763Z,9.70
2019-04-11T01:25:55.304Z,9.60
2019-04-11T01:28:25.149Z,9.60
2019-04-11T01:31:06.610Z,9.60
2019-04-11T01:33:36.372Z,9.40
2019-04-11T01:36:07.020Z,9.50
2019-04-11T01:38:42.077Z,9.20
2019-04-11T01:41:12.165Z,9.20
2019-04-11T01:43:52.715Z,9.30
2019-04-11T01:46:14.057Z,9.30
2019-04-11T01:48:52.124Z,9.30
2019-04-11T01:51:23.406Z,9.30
2019-04-11T01:53:53.204Z,9.10
2019-04-11T01:56:23.196Z,9.10
2019-04-11T01:58:53.131Z,9.10
2019-04-11T02:01:37.029Z,9.20
2019-04-11T02:04:14.023Z,9.20
2019-04-11T02:06:43.879Z,9.10
2019-04-11T02:09:15.849Z,9.00
2019-04-11T02:11:45.778Z,8.80
2019-04-11T02:14:17.826Z,8.80
2019-04-11T02:16:47.428Z,8.60
2019-04-11T02:19:18.307Z,8.70
2019-04-11T02:21:50.082Z,8.80
2019-04-11T02:24:39.676Z,8.80
2019-04-11T02:27:28.281Z,8.60
2019-04-11T02:30:00.959Z,8.60
2019-04-11T02:32:32.005Z,8.60
2019-04-11T02:35:04.364Z,8.50
2019-04-11T02:37:34.575Z,8.50
2019-04-11T02:40:07.606Z,8.20
2019-04-11T02:42:38.944Z,8.40
2019-04-11T02:45:25.075Z,8.60
2019-04-11T02:47:44.046Z,8.60
2019-04-11T02:50:14.904Z,8.50
2019-04-11T02:52:44.448Z,8.50
2019-04-11T02:55:14.960Z,8.60
2019-04-11T02:57:45.935Z,8.50
2019-04-11T03:00:17.563Z,8.60
2019-04-11T03:02:47.950Z,8.60
2019-04-11T03:05:20.738Z,8.60
2019-04-11T03:07:50.425Z,8.50
2019-04-11T03:10:21.055Z,8.40
2019-04-11T03:12:52.699Z,8.40
2019-04-11T03:15:37.574Z,8.30
2019-04-11T03:17:59.058Z,8.30
2019-04-11T03:20:34.923Z,8.40
2019-04-11T03:23:04.909Z,8.40
2019-04-11T03:25:30.676Z,8.40
2019-04-11T03:28:01.989Z,8.30
2019-04-11T03:30:48.154Z,8.30
2019-04-11T03:36:28.161Z,8.40
2019-04-11T03:38:33.128Z,8.50
2019-04-11T03:40:57.200Z,8.30
2019-04-11T03:43:24.221Z,8.30
2019-04-11T03:46:01.923Z,8.20
2019-04-11T03:48:29.040Z,8.30
2019-04-11T03:50:46.795Z,8.20
2019-04-11T03:53:19.281Z,8.20
2019-04-11T03:55:49.529Z,8.00
2019-04-11T03:58:20.227Z,7.90
2019-04-11T04:00:53.480Z,7.80
2019-04-11T04:03:24.602Z,7.70
2019-04-11T04:05:57.317Z,7.70
2019-04-11T04:08:29.153Z,7.70
2019-04-11T04:11:23.148Z,7.90
2019-04-11T04:14:12.797Z,7.80
2019-04-11T04:16:57.359Z,7.60
2019-04-11T04:19:40.229Z,7.60
2019-04-11T04:22:18.688Z,7.70
2019-04-11T04:24:49.789Z,7.70
2019-04-11T04:27:23.214Z,7.60
2019-04-11T04:29:57.281Z,7.70
2019-04-11T04:32:25.124Z,7.60
2019-04-11T04:34:56.367Z,7.70
2019-04-11T04:37:27.318Z,7.70
2019-04-11T04:40:21.205Z,7.50
2019-04-11T04:42:35.896Z,7.60
2019-04-11T04:45:02.727Z,7.80
2019-04-11T04:47:42.391Z,7.80
2019-04-11T04:50:06.162Z,7.70
2019-04-11T04:52:38.170Z,7.70
2019-04-11T04:55:08.588Z,7.80
2019-04-11T04:57:40.549Z,7.80
2019-04-11T05:00:11.747Z,7.60
2019-04-11T05:02:43.982Z,7.70
2019-04-11T05:05:14.086Z,7.80
2019-04-11T05:07:46.340Z,7.90
2019-04-11T05:10:15.742Z,7.70
2019-04-11T05:12:46.072Z,7.70
2019-04-11T05:15:16.695Z,7.70
2019-04-11T05:17:46.792Z,7.70
2019-04-11T05:20:16.656Z,7.80
2019-04-11T05:22:47.262Z,7.80
2019-04-11T05:25:18.205Z,7.80
2019-04-11T05:27:48.045Z,7.80
2019-04-11T05:30:18.788Z,7.80
2019-04-11T05:32:49.327Z,7.80
2019-04-11T05:35:19.175Z,7.70
2019-04-11T05:37:49.584Z,7.70
2019-04-11T05:40:19.627Z,7.70
2019-04-11T05:42:53.405Z,7.60
2019-04-11T05:45:24.198Z,7.50
2019-04-11T05:47:55.052Z,7.50
2019-04-11T05:50:29.667Z,7.50
2019-04-11T05:53:03.481Z,7.50
2019-04-11T05:55:41.346Z,7.50
2019-04-11T05:58:12.735Z,7.50
2019-04-11T06:00:48.901Z,7.30
2019-04-11T06:03:18.878Z,7.60
2019-04-11T06:06:10.895Z,7.60
2019-04-11T06:08:41.997Z,7.60
2019-04-11T06:11:34.806Z,7.60
2019-04-11T06:14:11.140Z,7.70
2019-04-11T06:16:48.824Z,7.70
2019-04-11T06:19:33.803Z,7.70
2019-04-11T06:22:06.636Z,7.70
2019-04-11T06:24:58.565Z,7.70
2019-04-11T06:27:36.000Z,7.70
2019-04-11T06:30:26.356Z,7.60
2019-04-11T06:33:16.507Z,7.50
2019-04-11T06:36:16.133Z,7.40
2019-04-11T06:38:59.811Z,7.50
2019-04-11T06:41:48.570Z,7.50
2019-04-11T06:44:56.338Z,7.60
2019-04-11T06:47:57.091Z,7.50
2019-04-11T06:50:44.189Z,7.50
2019-04-11T06:53:17.484Z,7.50
2019-04-11T06:56:04.493Z,7.40
2019-04-11T06:58:39.487Z,7.50
2019-04-11T07:01:13.933Z,7.40
2019-04-11T07:03:48.999Z,7.50
2019-04-11T07:06:21.772Z,7.50
2019-04-11T07:09:10.059Z,7.50
2019-04-11T07:11:44.810Z,7.50
2019-04-11T07:14:33.681Z,7.40
2019-04-11T07:17:21.036Z,7.40
2019-04-11T07:20:07.067Z,7.40
2019-04-11T07:22:55.306Z,7.40
2019-04-11T07:25:47.389Z,7.30
2019-04-11T07:28:25.256Z,7.40
2019-04-11T07:31:12.864Z,7.40
2019-04-11T07:34:11.442Z,7.40
2019-04-11T07:37:06.868Z,7.40
2019-04-11T07:39:56.208Z,7.40
2019-04-11T07:43:01.835Z,7.30
2019-04-11T07:45:47.139Z,7.50
2019-04-11T07:48:21.450Z,7.20
2019-04-11T07:50:50.772Z,7.10
2019-04-11T07:53:22.352Z,7.00
2019-04-11T07:55:53.131Z,7.00
2019-04-11T07:58:25.124Z,6.90
2019-04-11T08:01:27.094Z,7.10
2019-04-11T08:04:31.945Z,7.10
2019-04-11T08:07:19.929Z,7.10
2019-04-11T08:09:55.665Z,7.20
2019-04-11T08:12:28.329Z,7.40
2019-04-11T08:15:33.428Z,7.40
2019-04-11T08:18:10.351Z,7.60
2019-04-11T08:21:17.767Z,7.60
2019-04-11T08:23:51.939Z,7.60
2019-04-11T08:26:38.960Z,7.60
2019-04-11T08:29:13.359Z,7.80
2019-04-11T08:31:57.769Z,7.70
2019-04-11T08:34:31.191Z,7.70
2019-04-11T08:37:19.339Z,7.90
2019-04-11T08:39:51.990Z,8.10
2019-04-11T08:42:50.971Z,8.30
2019-04-11T08:45:21.724Z,8.30
2019-04-11T08:47:54.331Z,8.40
2019-04-11T08:50:28.272Z,8.60
2019-04-11T08:53:32.972Z,8.70
2019-04-11T08:56:03.932Z,8.90
2019-04-11T08:58:57.303Z,8.90
2019-04-11T09:01:27.761Z,9.20
2019-04-11T09:04:15.186Z,9.50
2019-04-11T09:06:45.085Z,9.70
2019-04-11T09:09:48.780Z,9.60
2019-04-11T09:12:18.573Z,9.90
2019-04-11T09:15:16.934Z,9.70
2019-04-11T09:17:58.886Z,10.10
2019-04-11T09:20:40.182Z,10.30
2019-04-11T09:23:12.006Z,10.40
2019-04-11T09:25:59.614Z,10.60
2019-04-11T09:28:49.337Z,10.60
2019-04-11T09:31:42.178Z,10.40
2019-04-11T09:34:30.282Z,10.20
2019-04-11T09:37:07.783Z,10.10
2019-04-11T09:39:55.253Z,10.00
2019-04-11T09:42:43.010Z,10.10
2019-04-11T09:45:27.785Z,10.00
2019-04-11T09:48:24.592Z,10.00
2019-04-11T09:51:15.895Z,9.90
2019-04-11T09:53:48.391Z,9.80
2019-04-11T09:56:36.432Z,9.80
2019-04-11T09:59:12.278Z,9.80
2019-04-11T10:02:10.097Z,10.00
2019-04-11T10:04:41.678Z,10.20
2019-04-11T10:07:30.449Z,10.20
2019-04-11T10:10:22.433Z,10.20
2019-04-11T10:13:22.106Z,10.20
2019-04-11T10:16:17.963Z,10.70
2019-04-11T10:18:59.845Z,11.10
2019-04-11T10:21:31.071Z,11.30
2019-04-11T10:24:20.600Z,11.40
2019-04-11T10:26:54.564Z,11.80
2019-04-11T10:29:50.418Z,12.10
2019-04-11T10:32:23.388Z,12.80
2019-04-11T10:35:21.944Z,13.30
2019-04-11T10:37:52.114Z,13.60
2019-04-11T10:40:44.146Z,13.90
2019-04-11T10:43:22.875Z,14.20
2019-04-11T10:46:07.142Z,14.10
2019-04-11T10:48:48.793Z,14.20
2019-04-11T10:51:35.903Z,14.20
2019-04-11T10:54:07.365Z,14.30
2019-04-11T10:56:57.842Z,14.40
2019-04-11T10:59:30.332Z,14.50
2019-04-11T11:02:09.010Z,14.60
2019-04-11T11:07:29.183Z,14.70
2019-04-11T11:10:04.590Z,14.70
2019-04-11T11:13:01.949Z,14.60
2019-04-11T11:15:35.798Z,14.50
2019-04-11T11:19:02.031Z,14.50
2019-04-11T11:21:11.343Z,14.60
2019-04-11T11:23:58.891Z,14.50
2019-04-11T11:26:32.018Z,14.40
2019-04-11T11:29:21.245Z,14.20
2019-04-11T11:32:19.034Z,14.40
2019-04-11T11:35:07.559Z,14.50
2019-04-11T11:37:55.322Z,14.60
2019-04-11T11:40:56.267Z,14.70
2019-04-11T11:43:27.985Z,14.60
2019-04-11T11:46:31.265Z,14.60
2019-04-11T11:49:08.055Z,14.70
2019-04-11T11:52:00.429Z,14.70
2019-04-11T11:54:35.922Z,14.70
2019-04-11T11:57:10.714Z,14.90
2019-04-11T11:59:44.928Z,14.90
2019-04-11T12:02:25.039Z,14.60
2019-04-11T12:05:16.356Z,14.50
2019-04-11T12:08:10.823Z,14.70
2019-04-11T12:10:46.502Z,14.20
2019-04-11T12:13:45.314Z,13.70
2019-04-11T12:16:52.019Z,13.90
2019-04-11T12:19:28.848Z,13.80
2019-04-11T12:21:59.965Z,13.70
2019-04-11T12:24:52.401Z,13.70
2019-04-11T12:27:50.069Z,13.60
2019-04-11T12:30:41.997Z,13.60
2019-04-11T12:33:29.804Z,13.40
2019-04-11T12:36:18.791Z,13.40
2019-04-11T12:39:16.328Z,13.30
2019-04-11T12:42:13.981Z,13.30
2019-04-11T12:45:01.324Z,13.40
2019-04-11T12:47:43.555Z,13.50
2019-04-11T12:50:32.543Z,13.40
2019-04-11T12:53:04.377Z,13.30
2019-04-11T12:55:51.740Z,13.20
2019-04-11T12:58:46.477Z,13.20
2019-04-11T13:01:33.925Z,12.90
2019-04-11T13:04:28.404Z,12.80
2019-04-11T13:07:09.736Z,12.60
2019-04-11T13:09:46.022Z,12.30
2019-04-11T13:12:41.866Z,12.50
2019-04-11T13:15:20.713Z,12.40
2019-04-11T13:18:17.245Z,12.40
2019-04-11T13:21:17.936Z,12.40
2019-04-11T13:24:09.520Z,12.50
2019-04-11T13:27:10.280Z,12.70
2019-04-11T13:30:05.141Z,12.60
2019-04-11T13:33:12.284Z,12.80
2019-04-11T13:36:03.789Z,12.60
2019-04-11T13:38:39.825Z,12.60
2019-04-11T13:41:27.113Z,12.50
2019-04-11T13:44:10.222Z,12.30
2019-04-11T13:46:58.955Z,12.30
2019-04-11T13:49:41.019Z,12.50
2019-04-11T13:52:30.106Z,12.30
2019-04-11T13:55:04.548Z,12.50
2019-04-11T13:57:59.177Z,12.20
2019-04-11T14:00:48.718Z,12.50
2019-04-11T14:03:49.509Z,12.40
2019-04-11T14:06:34.533Z,12.30
2019-04-11T14:09:38.146Z,12.50
2019-04-11T14:12:12.788Z,12.30
2019-04-11T14:14:45.343Z,12.00
2019-04-11T14:17:49.363Z,12.20
2019-04-11T14:20:32.033Z,12.20
2019-04-11T14:23:33.179Z,12.00
2019-04-11T14:26:16.222Z,12.10
2019-04-11T14:28:49.103Z,12.00
2019-04-11T14:31:36.332Z,12.10
2019-04-11T14:34:33.846Z,12.00
2019-04-11T14:37:21.243Z,11.90
2019-04-11T14:39:53.164Z,12.00
2019-04-11T14:42:45.984Z,12.00
2019-04-11T14:45:36.580Z,11.90
2019-04-11T14:48:22.608Z,11.70
2019-04-11T14:51:05.204Z,11.80
2019-04-11T14:53:52.455Z,11.90
2019-04-11T14:56:22.911Z,11.90
2019-04-11T14:59:26.978Z,11.70
2019-04-11T15:02:02.719Z,11.80
2019-04-11T15:04:50.384Z,12.10
2019-04-11T15:07:20.122Z,12.20
2019-04-11T15:10:09.052Z,12.10
2019-04-11T15:12:38.736Z,11.90
2019-04-11T15:15:26.886Z,11.70
2019-04-11T15:17:58.868Z,11.60
2019-04-11T15:20:37.127Z,11.50
2019-04-11T15:23:16.547Z,11.60
2019-04-11T15:26:10.167Z,11.80
2019-04-11T15:28:51.851Z,11.90
2019-04-11T15:31:39.851Z,12.10
2019-04-11T15:34:28.603Z,12.30
2019-04-11T15:37:30.446Z,12.10
2019-04-11T15:40:24.880Z,11.90
2019-04-11T15:43:13.585Z,11.50
2019-04-11T15:46:01.421Z,11.20
2019-04-11T15:48:59.194Z,11.30
2019-04-11T15:51:36.809Z,11.40
2019-04-11T15:54:25.772Z,11.20
2019-04-11T15:57:01.397Z,11.20
2019-04-11T15:59:57.025Z,11.00
2019-04-11T16:03:02.009Z,11.10
2019-04-11T16:05:50.775Z,11.20
2019-04-11T16:08:55.762Z,11.10
2019-04-11T16:11:53.442Z,10.90
2019-04-11T16:14:28.686Z,10.60
2019-04-11T16:17:35.644Z,10.60
2019-04-11T16:20:20.476Z,10.80
2019-04-11T16:23:16.222Z,10.80
2019-04-11T16:25:49.247Z,10.90
2019-04-11T16:28:53.159Z,10.90
2019-04-11T16:31:26.040Z,10.90
2019-04-11T16:34:15.828Z,10.80
2019-04-11T16:36:51.256Z,10.60
2019-04-11T16:39:50.166Z,10.80
2019-04-11T16:42:24.123Z,10.80
2019-04-11T16:45:19.644Z,10.90
2019-04-11T16:48:06.250Z,10.90
2019-04-11T16:50:36.058Z,10.90
2019-04-11T16:53:10.433Z,11.00
2019-04-11T16:55:41.944Z,11.10
2019-04-11T16:58:14.807Z,11.20
2019-04-11T17:00:42.025Z,11.20
2019-04-11T17:03:12.123Z,11.10
2019-04-11T17:05:45.590Z,11.10
2019-04-11T17:08:26.500Z,10.80
2019-04-11T17:11:13.407Z,10.90
2019-04-11T17:13:43.661Z,10.90
2019-04-11T17:16:15.716Z,10.70
2019-04-11T17:18:50.087Z,10.70
2019-04-11T17:21:23.008Z,10.70
2019-04-11T17:23:52.200Z,10.50
2019-04-11T17:26:23.229Z,10.40
2019-04-11T17:28:54.608Z,10.40
2019-04-11T17:31:25.984Z,10.30
2019-04-11T17:34:01.588Z,10.40
2019-04-11T17:36:30.834Z,10.30
2019-04-11T17:39:00.017Z,10.50
2019-04-11T17:41:29.696Z,10.40
2019-04-11T17:43:59.577Z,10.50
2019-04-11T17:46:29.389Z,10.50
2019-04-11T17:48:59.078Z,10.60
2019-04-11T17:51:28.938Z,10.50
2019-04-11T17:54:01.275Z,10.40
2019-04-11T17:56:30.265Z,10.30
2019-04-11T17:59:00.047Z,10.40
2019-04-11T18:01:29.865Z,10.20
2019-04-11T18:03:59.751Z,10.30
2019-04-11T18:06:29.568Z,10.30
2019-04-11T18:08:59.354Z,10.20
2019-04-11T18:11:29.354Z,10.20
2019-04-11T18:14:01.007Z,10.20
2019-04-11T18:16:31.636Z,10.10
2019-04-11T18:19:05.756Z,10.20
2019-04-11T18:21:34.855Z,10.20
2019-04-11T18:24:04.929Z,10.20
2019-04-11T18:26:34.723Z,10.00
2019-04-11T18:29:05.592Z,10.00
2019-04-11T18:31:35.497Z,10.00
2019-04-11T18:34:05.163Z,9.90
2019-04-11T18:36:37.230Z,10.00
2019-04-11T18:39:08.069Z,10.10
2019-04-11T18:41:37.944Z,10.10
2019-04-11T18:44:09.638Z,10.10
2019-04-11T18:46:39.349Z,10.10
2019-04-11T18:49:09.418Z,10.10
2019-04-11T18:51:39.130Z,10.10
2019-04-11T18:54:09.092Z,10.00
2019-04-11T18:56:39.940Z,9.90
2019-04-11T18:59:10.803Z,9.80
2019-04-11T19:01:40.519Z,9.70
2019-04-11T19:04:12.013Z,9.60
2019-04-11T19:06:43.018Z,9.50
2019-04-11T19:09:14.869Z,9.50
2019-04-11T19:11:46.368Z,9.50
2019-04-11T19:14:16.702Z,9.50
2019-04-11T19:16:46.922Z,9.50
2019-04-11T19:19:18.368Z,9.50
2019-04-11T19:21:51.084Z,9.60
2019-04-11T19:24:20.618Z,9.60
2019-04-11T19:26:51.767Z,9.50
2019-04-11T19:29:24.850Z,9.40
2019-04-11T19:31:54.041Z,9.40
2019-04-11T19:34:24.847Z,9.40
2019-04-11T19:36:55.652Z,9.40
2019-04-11T19:39:25.533Z,9.50
2019-04-11T19:41:55.544Z,9.50
2019-04-11T19:44:26.277Z,9.40
2019-04-11T19:46:56.191Z,9.20
2019-04-11T19:49:28.761Z,9.10
2019-04-11T19:51:58.667Z,9.10
2019-04-11T19:54:32.716Z,9.10
2019-04-11T19:57:07.226Z,8.90
2019-04-11T19:59:36.947Z,8.80
2019-04-11T20:02:07.112Z,8.90
2019-04-11T20:04:37.997Z,8.80
2019-04-11T20:07:07.766Z,8.80
2019-04-11T20:09:37.940Z,8.70
2019-04-11T20:12:09.079Z,8.70
2019-04-11T20:14:41.011Z,8.80
2019-04-11T20:17:10.729Z,8.70
2019-04-11T20:19:40.637Z,8.70
2019-04-11T20:22:10.712Z,8.70
2019-04-11T20:24:43.155Z,8.60
2019-04-11T20:27:12.126Z,8.60
2019-04-11T20:29:42.102Z,8.60
2019-04-11T20:32:13.800Z,8.30
2019-04-11T20:34:44.019Z,8.40
2019-04-11T20:37:13.850Z,8.50
2019-04-11T20:39:46.360Z,8.40
2019-04-11T20:42:17.319Z,8.30
2019-04-11T20:44:47.088Z,8.30
2019-04-11T20:47:17.017Z,8.30
2019-04-11T20:49:49.688Z,8.50
2019-04-11T20:52:20.829Z,8.50
2019-04-11T20:54:50.671Z,8.60
2019-04-11T20:57:26.036Z,8.50
2019-04-11T20:59:52.262Z,8.40
2019-04-11T21:02:22.107Z,8.20
2019-04-11T21:04:53.544Z,8.20
2019-04-11T21:07:23.289Z,8.30
2019-04-11T21:09:53.659Z,8.00
2019-04-11T21:12:24.517Z,8.10
2019-04-11T21:14:54.299Z,8.20
2019-04-11T21:17:25.082Z,8.20
2019-04-11T21:19:56.572Z,8.10
2019-04-11T21:22:26.323Z,8.10
2019-04-11T21:24:59.530Z,8.00
2019-04-11T21:27:30.004Z,7.80
2019-04-11T21:30:00.612Z,7.90
2019-04-11T21:32:31.959Z,7.90
2019-04-11T21:35:03.094Z,7.80
2019-04-11T21:37:33.109Z,7.90
2019-04-11T21:40:03.476Z,7.90
2019-04-11T21:42:36.082Z,8.00
2019-04-11T21:45:07.741Z,8.00
2019-04-11T21:47:40.088Z,8.10
2019-04-11T21:50:11.133Z,8.10
2019-04-11T21:52:43.376Z,8.00
2019-04-11T21:55:16.005Z,8.00
2019-04-11T21:57:48.284Z,8.00
2019-04-11T22:00:23.086Z,7.80
2019-04-11T22:02:54.378Z,7.80
2019-04-11T22:05:28.933Z,7.90
2019-04-11T22:07:56.604Z,7.90
2019-04-11T22:10:26.888Z,7.60
2019-04-11T22:12:56.730Z,7.70
2019-04-11T22:15:42.166Z,7.70
2019-04-11T22:18:10.178Z,7.80
2019-04-11T22:20:39.830Z,7.90
2019-04-11T22:23:09.580Z,7.80
2019-04-11T22:25:39.399Z,8.00
2019-04-11T22:28:09.091Z,8.00
2019-04-11T22:30:38.883Z,8.10
2019-04-11T22:33:18.923Z,8.20
2019-04-11T22:35:50.412Z,8.20
2019-04-11T22:38:21.024Z,8.20
2019-04-11T22:40:51.206Z,8.20
2019-04-11T22:43:24.435Z,8.30
2019-04-11T22:45:53.493Z,8.30
2019-04-11T22:48:24.186Z,8.40
2019-04-11T22:50:54.035Z,8.40
2019-04-11T22:53:24.790Z,8.40
2019-04-11T22:55:56.090Z,8.30
2019-04-11T22:58:25.828Z,8.30
2019-04-11T23:00:56.649Z,8.30
2019-04-11T23:03:30.298Z,8.10
2019-04-11T23:06:00.253Z,8.20
2019-04-11T23:08:30.029Z,8.10
2019-04-11T23:10:59.847Z,7.90
2019-04-11T23:13:30.283Z,7.90
2019-04-11T23:16:00.257Z,7.90
2019-04-11T23:18:30.833Z,7.90
2019-04-11T23:21:01.492Z,7.60
2019-04-11T23:23:31.924Z,7.70
2019-04-11T23:26:01.628Z,7.70
2019-04-11T23:28:31.451Z,7.60
2019-04-11T23:31:01.158Z,7.70
2019-04-11T23:33:31.035Z,7.70
2019-04-11T23:36:00.673Z,7.80
2019-04-11T23:38:30.522Z,7.70
2019-04-11T23:41:00.205Z,7.60
2019-04-11T23:43:30.846Z,7.40
2019-04-11T23:46:00.546Z,7.40
2019-04-11T23:48:30.369Z,7.40
2019-04-11T23:51:00.114Z,7.30
2019-04-11T23:53:29.979Z,7.40
2019-04-11T23:56:00.168Z,7.40
2019-04-11T23:58:32.077Z,7.30
